Time;durP1;ratioP1;P1;durP2;ratioP2;P2;SDS_P1;SDS_P2;PMS_P1;PMS_P2;Temp;Humidity;BMP_temperature;BMP_pressure;BME280_temperature;BME280_humidity;BME280_pressure;Samples;Min_cycle;Max_cycle;Signal;HPM_P1;HPM_P2
2021/07/28 00:01:58;;;;;;;7.23;6.17;;;21.00;99.90;;;;;;5010992;28;20447;-68
2021/07/28 00:04:27;;;;;;;5.00;4.00;;;21.00;99.90;;;;;;5011413;28;21005;-69
2021/07/28 00:06:54;;;;;;;3.50;2.80;;;20.90;99.90;;;;;;5010573;28;20443;-69
2021/07/28 00:09:21;;;;;;;4.43;2.93;;;20.90;99.40;;;;;;5011424;28;20525;-69
2021/07/28 00:11:49;;;;;;;3.83;2.30;;;20.90;97.70;;;;;;5011379;28;20474;-68
2021/07/28 00:14:16;;;;;;;9.30;2.50;;;20.80;96.70;;;;;;5011351;28;20518;-68
2021/07/28 00:16:43;;;;;;;3.90;2.80;;;20.70;96.00;;;;;;5011317;28;20435;-68
2021/07/28 00:19:12;;;;;;;2.70;1.90;;;20.70;96.00;;;;;;5011228;28;20449;-70
2021/07/28 00:24:29;;;;;;;4.10;2.60;;;20.60;95.90;;;;;;5011272;28;20476;-70
2021/07/28 00:26:57;;;;;;;5.60;2.63;;;20.50;96.20;;;;;;5011209;28;20443;-68
2021/07/28 00:29:24;;;;;;;3.97;2.07;;;20.40;96.30;;;;;;5010890;28;20998;-68
2021/07/28 00:31:51;;;;;;;4.33;2.17;;;20.30;96.40;;;;;;5011017;28;21004;-68
2021/07/28 00:34:19;;;;;;;5.60;2.67;;;20.30;96.60;;;;;;5011093;28;21063;-69
2021/07/28 00:36:46;;;;;;;3.87;2.53;;;20.20;96.80;;;;;;5009883;28;20517;-68
2021/07/28 00:39:13;;;;;;;4.70;2.33;;;20.20;96.90;;;;;;5011155;28;20560;-68
2021/07/28 00:41:40;;;;;;;4.63;2.47;;;20.10;97.00;;;;;;5011108;28;20534;-69
2021/07/28 00:44:07;;;;;;;3.33;2.10;;;20.10;97.00;;;;;;5010892;28;20569;-68
2021/07/28 00:46:34;;;;;;;3.50;2.50;;;20.10;97.10;;;;;;5010878;28;20522;-68
2021/07/28 00:49:01;;;;;;;5.90;2.07;;;20.00;97.10;;;;;;5010825;28;20529;-68
2021/07/28 00:51:30;;;;;;;4.00;2.90;;;20.00;96.90;;;;;;5010998;28;20525;-68
2021/07/28 00:53:58;;;;;;;4.37;2.87;;;19.90;96.80;;;;;;5010774;28;20482;-68
2021/07/28 00:56:26;;;;;;;5.50;3.30;;;19.90;97.00;;;;;;5010835;28;20474;-68
2021/07/28 00:58:54;;;;;;;3.87;2.63;;;19.90;97.10;;;;;;5010893;28;20478;-68
2021/07/28 01:01:21;;;;;;;4.03;2.67;;;19.80;97.10;;;;;;5010838;28;20451;-68
2021/07/28 01:03:48;;;;;;;3.10;2.80;;;19.80;97.30;;;;;;5010668;28;20518;-68
2021/07/28 01:06:15;;;;;;;7.70;2.63;;;19.80;97.50;;;;;;5010663;28;20533;-67
2021/07/28 01:08:43;;;;;;;3.67;2.50;;;19.70;97.60;;;;;;5010718;28;20752;-68
2021/07/28 01:11:10;;;;;;;4.63;2.70;;;19.70;97.60;;;;;;5010568;28;20526;-68
2021/07/28 01:13:37;;;;;;;4.20;2.40;;;19.70;97.60;;;;;;5010389;28;20909;-68
2021/07/28 01:16:07;;;;;;;3.40;2.43;;;19.60;97.60;;;;;;5010396;28;20498;-68
2021/07/28 01:18:35;;;;;;;6.13;3.37;;;19.50;97.50;;;;;;5010537;28;20441;-68
2021/07/28 01:21:03;;;;;;;4.23;3.07;;;19.50;97.40;;;;;;5010343;28;20831;-68
2021/07/28 01:23:32;;;;;;;4.10;3.07;;;19.40;97.70;;;;;;5010457;28;20525;-68
2021/07/28 01:26:03;;;;;;;3.33;2.10;;;19.50;98.10;;;;;;5010478;28;20550;-68
2021/07/28 01:28:32;;;;;;;3.47;2.47;;;19.40;98.10;;;;;;5010022;28;20992;-70
2021/07/28 01:31:01;;;;;;;3.07;1.93;;;19.40;98.10;;;;;;5010360;28;20534;-68
2021/07/28 01:33:29;;;;;;;3.87;2.77;;;19.40;98.20;;;;;;5010296;28;20504;-68
2021/07/28 01:35:57;;;;;;;4.27;2.97;;;19.30;98.30;;;;;;5010339;28;20471;-67
2021/07/28 01:38:26;;;;;;;7.90;4.67;;;19.30;98.10;;;;;;5010254;28;20434;-68
2021/07/28 01:40:56;;;;;;;7.23;4.60;;;19.30;98.10;;;;;;5010210;28;20435;-68
2021/07/28 01:43:23;;;;;;;5.30;3.67;;;19.20;98.50;;;;;;5010267;28;20765;-68
2021/07/28 01:45:51;;;;;;;4.63;3.40;;;19.30;98.80;;;;;;5010067;28;20530;-68
2021/07/28 01:48:18;;;;;;;4.47;3.17;;;19.30;98.90;;;;;;5012441;28;20478;-68
2021/07/28 01:50:46;;;;;;;4.50;3.33;;;19.20;98.80;;;;;;5013796;28;20525;-68
2021/07/28 01:53:13;;;;;;;6.00;3.10;;;19.20;99.10;;;;;;5013601;28;20439;-68
2021/07/28 01:55:40;;;;;;;4.70;2.73;;;19.10;99.30;;;;;;5013589;28;20434;-68
2021/07/28 01:58:09;;;;;;;8.50;2.60;;;19.10;99.70;;;;;;5013796;28;20842;-68
2021/07/28 02:00:37;;;;;;;3.73;2.80;;;19.10;99.90;;;;;;5013707;28;20474;-68
2021/07/28 02:03:04;;;;;;;3.80;3.00;;;19.10;99.90;;;;;;5013463;28;20461;-68
2021/07/28 02:05:31;;;;;;;3.90;2.53;;;19.10;99.90;;;;;;5013458;28;20482;-68
2021/07/28 02:08:02;;;;;;;6.00;3.50;;;19.10;99.90;;;;;;5013404;28;20449;-68
2021/07/28 02:10:29;;;;;;;4.07;2.93;;;19.10;99.90;;;;;;5013567;28;20864;-68
2021/07/28 02:12:56;;;;;;;3.83;2.80;;;19.20;99.90;;;;;;5013379;28;20931;-68
2021/07/28 02:15:25;;;;;;;4.20;3.13;;;19.20;99.90;;;;;;5013156;28;20561;-68
2021/07/28 02:17:52;;;;;;;7.10;3.10;;;19.10;99.90;;;;;;5013065;28;21004;-68
2021/07/28 02:20:19;;;;;;;4.57;2.90;;;19.10;99.90;;;;;;5013234;28;20518;-69
2021/07/28 02:22:47;;;;;;;7.33;3.60;;;19.00;99.90;;;;;;5014005;28;20513;-69
2021/07/28 02:25:14;;;;;;;4.10;3.00;;;19.10;99.90;;;;;;5013148;28;20477;-69
2021/07/28 02:27:42;;;;;;;3.80;2.67;;;19.10;99.90;;;;;;5012863;28;20446;-69
2021/07/28 02:30:10;;;;;;;4.37;3.60;;;19.10;99.90;;;;;;5013186;28;20826;-68
2021/07/28 02:32:39;;;;;;;3.83;3.03;;;19.10;99.90;;;;;;5013026;28;20526;-68
2021/07/28 02:35:07;;;;;;;4.47;2.60;;;19.10;99.90;;;;;;5012788;28;20569;-69
2021/07/28 02:37:35;;;;;;;5.50;2.80;;;19.10;99.90;;;;;;5013013;28;20529;-68
2021/07/28 02:40:03;;;;;;;3.63;2.67;;;19.20;99.90;;;;;;5012795;28;20538;-68
2021/07/28 02:42:30;;;;;;;4.60;3.53;;;19.20;99.90;;;;;;5012819;28;20481;-68
2021/07/28 02:44:57;;;;;;;11.33;3.93;;;19.20;99.90;;;;;;5012598;28;20976;-68
2021/07/28 02:47:24;;;;;;;3.90;3.27;;;19.20;99.90;;;;;;5012858;28;20525;-68
2021/07/28 02:49:52;;;;;;;4.23;3.20;;;19.20;99.90;;;;;;5012792;28;21015;-68
2021/07/28 02:52:19;;;;;;;4.93;3.70;;;19.20;99.90;;;;;;5012701;28;20952;-68
2021/07/28 02:54:46;;;;;;;6.40;3.33;;;19.20;99.80;;;;;;5012618;28;20576;-68
2021/07/28 02:57:13;;;;;;;7.10;3.77;;;19.10;99.90;;;;;;5012507;28;20525;-68
2021/07/28 02:59:39;;;;;;;7.57;4.17;;;19.20;99.90;;;;;;5011662;28;20867;-68
2021/07/28 03:02:06;;;;;;;4.27;3.17;;;19.20;99.90;;;;;;5012676;28;20446;-68
2021/07/28 03:04:33;;;;;;;4.50;2.87;;;19.20;99.90;;;;;;5012462;28;20943;-68
2021/07/28 03:07:02;;;;;;;4.80;3.50;;;19.20;99.90;;;;;;5012434;28;20925;-68
2021/07/28 03:09:29;;;;;;;5.57;3.70;;;19.20;99.90;;;;;;5012105;28;20881;-68
2021/07/28 03:11:56;;;;;;;4.23;3.40;;;19.20;99.90;;;;;;5012502;28;20843;-68
2021/07/28 03:14:22;;;;;;;4.53;3.73;;;19.20;99.90;;;;;;5012120;28;21064;-68
2021/07/28 03:16:50;;;;;;;5.23;3.33;;;19.20;99.90;;;;;;5012139;28;20514;-68
2021/07/28 03:19:17;;;;;;;3.80;3.37;;;19.20;99.90;;;;;;5012333;28;20492;-69
2021/07/28 03:21:44;;;;;;;4.47;3.43;;;19.20;99.90;;;;;;5012237;28;20537;-69
2021/07/28 03:24:12;;;;;;;5.10;3.50;;;19.20;99.90;;;;;;5012235;28;20530;-68
2021/07/28 03:26:39;;;;;;;4.33;3.07;;;19.20;99.90;;;;;;5012067;28;20443;-69
2021/07/28 03:29:06;;;;;;;5.53;3.60;;;19.30;99.90;;;;;;5012047;28;20696;-68
2021/07/28 03:31:33;;;;;;;5.80;3.80;;;19.30;99.90;;;;;;5011877;28;20450;-69
2021/07/28 03:34:00;;;;;;;5.20;4.13;;;19.30;99.90;;;;;;5011843;28;20461;-69
2021/07/28 03:36:27;;;;;;;7.93;4.33;;;19.30;99.90;;;;;;5011813;28;20439;-69
2021/07/28 03:38:54;;;;;;;6.73;4.50;;;19.30;99.90;;;;;;5011828;28;20521;-68
2021/07/28 03:41:22;;;;;;;5.43;3.87;;;19.20;99.90;;;;;;5011955;28;20530;-68
2021/07/28 03:43:49;;;;;;;4.20;3.47;;;19.20;99.90;;;;;;5011767;28;20446;-68
2021/07/28 03:46:16;;;;;;;7.40;4.30;;;19.30;99.90;;;;;;5011853;28;20525;-69
2021/07/28 03:48:43;;;;;;;6.83;4.23;;;19.30;99.90;;;;;;5011834;28;20923;-68
2021/07/28 03:51:10;;;;;;;6.80;4.80;;;19.30;99.90;;;;;;5011742;28;20438;-69
2021/07/28 03:53:37;;;;;;;5.80;4.23;;;19.30;99.90;;;;;;5011688;28;20537;-68
2021/07/28 03:56:04;;;;;;;4.90;4.10;;;19.30;99.90;;;;;;5011499;28;20486;-68
2021/07/28 03:58:33;;;;;;;4.90;3.93;;;19.30;99.90;;;;;;5011647;28;20835;-68
2021/07/28 04:01:00;;;;;;;4.80;4.30;;;19.30;99.90;;;;;;5011693;28;20492;-68
2021/07/28 04:03:27;;;;;;;7.40;4.50;;;19.30;99.90;;;;;;5011870;28;20861;-68
2021/07/28 04:05:54;;;;;;;5.90;4.10;;;19.40;99.90;;;;;;5011708;28;20525;-68
2021/07/28 04:08:21;;;;;;;6.17;4.63;;;19.30;99.90;;;;;;5011935;28;20778;-68
2021/07/28 04:10:48;;;;;;;7.30;5.37;;;19.40;99.90;;;;;;5011714;28;20446;-68
2021/07/28 04:13:15;;;;;;;5.97;4.20;;;19.30;99.90;;;;;;5011718;28;20441;-71
2021/07/28 04:15:44;;;;;;;5.90;4.13;;;19.30;99.90;;;;;;5011863;28;20482;-68
2021/07/28 04:18:11;;;;;;;5.57;4.37;;;19.20;99.90;;;;;;5012026;28;20451;-69
2021/07/28 04:20:38;;;;;;;6.90;4.13;;;19.30;99.90;;;;;;5011872;28;20858;-67
2021/07/28 04:23:05;;;;;;;5.50;4.57;;;19.30;99.90;;;;;;5011753;28;20435;-68
2021/07/28 04:25:32;;;;;;;6.60;4.73;;;19.30;99.90;;;;;;5011610;28;20538;-68
2021/07/28 04:27:59;;;;;;;6.00;4.50;;;19.30;99.90;;;;;;5011406;28;20980;-68
2021/07/28 04:30:26;;;;;;;7.27;4.63;;;19.30;99.90;;;;;;5011573;28;20518;-68
2021/07/28 04:32:54;;;;;;;5.90;4.67;;;19.40;99.90;;;;;;5011464;28;20530;-68
2021/07/28 04:35:21;;;;;;;4.90;4.20;;;19.40;99.90;;;;;;5011258;28;21035;-68
2021/07/28 04:37:48;;;;;;;6.40;4.50;;;19.40;99.90;;;;;;5011589;28;20522;-69
2021/07/28 04:40:16;;;;;;;6.70;4.70;;;19.50;99.90;;;;;;5011485;28;20474;-68
2021/07/28 04:42:42;;;;;;;4.27;3.63;;;19.50;99.90;;;;;;5011265;28;20446;-69
2021/07/28 04:45:10;;;;;;;6.03;5.03;;;19.40;99.90;;;;;;5011436;28;20537;-68
2021/07/28 04:47:37;;;;;;;6.87;5.33;;;19.40;99.90;;;;;;5011403;28;20521;-68
2021/07/28 04:50:06;;;;;;;5.77;5.20;;;19.50;99.90;;;;;;5011372;28;20530;-69
2021/07/28 04:52:33;;;;;;;7.53;5.20;;;19.50;99.90;;;;;;5011030;28;20478;-68
2021/07/28 04:55:01;;;;;;;6.30;4.77;;;19.50;99.90;;;;;;5007243;28;20565;-74
2021/07/28 04:57:28;;;;;;;5.50;4.43;;;19.50;99.90;;;;;;5031077;28;20431;-68
2021/07/28 04:59:55;;;;;;;5.53;4.50;;;19.50;99.90;;;;;;5007167;28;20909;-69
2021/07/28 05:02:23;;;;;;;7.47;4.80;;;19.60;99.90;;;;;;4992430;28;20432;-69
2021/07/28 05:04:50;;;;;;;6.00;4.53;;;19.60;99.90;;;;;;5065288;28;20801;-68
2021/07/28 05:07:21;;;;;;;7.50;4.93;;;19.70;99.90;;;;;;5022941;28;20569;-68
2021/07/28 05:09:49;;;;;;;5.07;4.57;;;19.70;99.90;;;;;;5002823;28;20524;-69
2021/07/28 05:12:18;;;;;;;6.67;5.10;;;19.70;99.90;;;;;;5014130;28;20536;-68
2021/07/28 05:14:46;;;;;;;6.37;4.70;;;19.80;99.90;;;;;;5011520;28;20474;-69
2021/07/28 05:17:13;;;;;;;6.87;6.20;;;19.80;99.90;;;;;;5007412;28;20506;-68
2021/07/28 05:19:44;;;;;;;6.90;5.80;;;19.80;99.90;;;;;;5002444;28;20501;-69
2021/07/28 05:22:13;;;;;;;7.30;6.10;;;19.90;99.90;;;;;;4989537;28;20467;-68
2021/07/28 05:24:42;;;;;;;7.97;5.70;;;19.90;99.90;;;;;;4993523;28;20446;-68
2021/07/28 05:27:12;;;;;;;6.50;4.77;;;19.90;99.90;;;;;;4997682;28;20818;-68
2021/07/28 05:29:39;;;;;;;6.30;5.50;;;20.00;99.90;;;;;;5007043;28;20555;-68
2021/07/28 05:32:07;;;;;;;8.57;6.20;;;20.00;99.90;;;;;;5007117;28;20466;-68
2021/07/28 05:34:36;;;;;;;5.90;4.97;;;20.10;99.90;;;;;;5006834;28;20446;-68
2021/07/28 05:37:04;;;;;;;10.70;6.63;;;20.10;99.90;;;;;;5010208;28;20437;-68
2021/07/28 05:39:31;;;;;;;9.17;7.63;;;20.20;99.90;;;;;;5007328;28;20435;-68
2021/07/28 05:42:00;;;;;;;7.57;6.47;;;20.20;99.90;;;;;;5009495;28;20956;-68
2021/07/28 05:44:28;;;;;;;8.27;6.73;;;20.30;99.90;;;;;;5010003;28;20435;-69
2021/07/28 05:46:56;;;;;;;7.10;6.30;;;20.30;99.90;;;;;;5009345;28;20446;-68
2021/07/28 05:49:23;;;;;;;9.20;6.93;;;20.40;99.90;;;;;;5020529;28;20443;-68
2021/07/28 05:51:52;;;;;;;6.47;5.87;;;20.50;99.90;;;;;;5084823;28;20533;-70
2021/07/28 05:54:24;;;;;;;7.80;6.80;;;20.50;99.90;;;;;;5027241;28;20445;-68
2021/07/28 05:56:52;;;;;;;8.00;6.07;;;20.60;99.90;;;;;;5002081;28;21007;-68
2021/07/28 05:59:23;;;;;;;9.17;6.50;;;20.70;99.90;;;;;;4990305;28;20436;-68
2021/07/28 06:01:52;;;;;;;6.63;5.60;;;20.70;99.90;;;;;;4990435;28;20432;-68
2021/07/28 06:04:19;;;;;;;8.17;6.80;;;20.70;99.90;;;;;;5001074;28;20493;-73
2021/07/28 06:06:46;;;;;;;7.33;5.90;;;20.70;99.90;;;;;;5002875;28;20470;-68
2021/07/28 06:09:13;;;;;;;6.53;5.53;;;20.80;99.90;;;;;;5009754;28;20524;-69
2021/07/28 06:11:40;;;;;;;7.83;6.00;;;20.90;99.90;;;;;;5010081;28;20511;-68
2021/07/28 06:14:07;;;;;;;7.27;6.37;;;20.90;99.90;;;;;;5009937;28;20777;-68
2021/07/28 06:16:36;;;;;;;11.00;6.97;;;21.10;99.90;;;;;;5009593;28;20884;-68
2021/07/28 06:19:03;;;;;;;6.77;5.60;;;21.20;99.90;;;;;;5008642;28;20525;-68
2021/07/28 06:21:30;;;;;;;6.83;5.40;;;21.40;99.90;;;;;;5009816;28;20530;-68
2021/07/28 06:23:59;;;;;;;6.40;5.53;;;21.70;99.90;;;;;;5008545;28;20526;-68
2021/07/28 06:26:26;;;;;;;6.50;4.97;;;21.90;99.90;;;;;;5009810;28;20503;-68
2021/07/28 06:28:54;;;;;;;10.80;5.07;;;22.00;99.90;;;;;;5009527;28;20466;-68
2021/07/28 06:31:21;;;;;;;7.17;5.00;;;22.10;99.90;;;;;;5009424;28;21019;-68
2021/07/28 06:33:49;;;;;;;6.93;4.80;;;22.30;99.90;;;;;;5011364;28;20526;-68
2021/07/28 06:36:16;;;;;;;7.23;4.50;;;22.40;99.90;;;;;;5012963;28;20574;-68
2021/07/28 06:38:43;;;;;;;6.20;5.00;;;22.60;99.90;;;;;;5013109;28;20435;-68
2021/07/28 06:41:13;;;;;;;6.03;5.10;;;22.70;99.90;;;;;;5013322;28;20438;-69
2021/07/28 06:43:40;;;;;;;6.53;5.03;;;22.80;99.90;;;;;;5013211;28;20470;-69
2021/07/28 06:46:07;;;;;;;6.87;5.90;;;22.70;99.60;;;;;;5013098;28;20515;-68
2021/07/28 06:48:35;;;;;;;5.60;5.00;;;22.80;99.60;;;;;;5012989;28;20521;-68
2021/07/28 06:51:03;;;;;;;6.27;4.70;;;22.80;99.50;;;;;;5012911;28;20999;-68
2021/07/28 06:53:34;;;;;;;6.27;4.93;;;22.90;99.00;;;;;;5013042;28;20526;-67
2021/07/28 06:56:02;;;;;;;6.30;5.03;;;23.00;98.70;;;;;;5012984;28;20573;-68
2021/07/28 06:58:28;;;;;;;5.77;4.07;;;23.20;98.30;;;;;;5012977;28;20430;-68
2021/07/28 07:00:58;;;;;;;5.20;4.63;;;23.30;98.40;;;;;;5012765;28;20538;-68
2021/07/28 07:03:25;;;;;;;5.60;4.63;;;23.60;98.80;;;;;;5012803;28;20466;-69
2021/07/28 07:05:52;;;;;;;4.70;3.93;;;23.60;97.40;;;;;;5012546;28;20526;-68
2021/07/28 07:08:20;;;;;;;5.57;4.50;;;23.80;97.70;;;;;;5012543;28;20984;-69
2021/07/28 07:10:47;;;;;;;5.30;4.80;;;24.00;97.30;;;;;;5012610;28;20450;-68
2021/07/28 07:13:14;;;;;;;6.57;5.27;;;24.20;96.70;;;;;;5012490;28;20475;-68
2021/07/28 07:15:41;;;;;;;5.70;4.80;;;24.30;96.00;;;;;;5012364;28;20491;-70
2021/07/28 07:18:09;;;;;;;6.27;4.77;;;24.30;94.80;;;;;;5012194;28;20447;-68
2021/07/28 07:20:38;;;;;;;6.20;4.53;;;24.30;94.80;;;;;;5012376;28;20573;-69
2021/07/28 07:23:05;;;;;;;5.33;4.67;;;24.20;94.60;;;;;;5012378;28;20594;-68
2021/07/28 07:25:33;;;;;;;7.40;4.60;;;24.20;94.60;;;;;;5012427;28;20530;-68
2021/07/28 07:28:02;;;;;;;4.73;4.00;;;24.20;94.30;;;;;;5011693;28;20558;-68
2021/07/28 07:30:29;;;;;;;5.37;4.60;;;24.10;93.80;;;;;;5012277;28;20539;-68
2021/07/28 07:35:41;;;;;;;5.27;4.33;;;24.20;94.60;;;;;;5012301;28;20536;-69
2021/07/28 07:38:08;;;;;;;6.67;5.33;;;24.30;94.70;;;;;;5012347;28;20478;-68
2021/07/28 07:40:37;;;;;;;4.87;3.87;;;24.40;94.70;;;;;;5012121;28;20475;-68
2021/07/28 07:43:07;;;;;;;7.30;4.67;;;24.50;94.30;;;;;;5011892;28;20466;-69
2021/07/28 07:45:36;;;;;;;7.00;5.00;;;24.40;94.10;;;;;;5011530;28;20448;-68
2021/07/28 07:48:06;;;;;;;6.60;5.60;;;24.20;93.20;;;;;;5012046;28;20447;-68
2021/07/28 07:50:37;;;;;;;8.33;5.40;;;24.10;91.80;;;;;;5011993;28;20532;-68
2021/07/28 07:53:04;;;;;;;6.93;5.63;;;23.90;91.50;;;;;;5012306;28;20839;-68
2021/07/28 07:55:36;;;;;;;7.10;6.13;;;23.70;91.20;;;;;;5011801;28;20569;-68
2021/07/28 07:58:03;;;;;;;8.73;6.43;;;23.50;91.60;;;;;;5011927;28;20534;-68
2021/07/28 08:00:31;;;;;;;9.20;6.30;;;23.30;92.00;;;;;;5011725;28;20431;-68
2021/07/28 08:02:59;;;;;;;7.60;5.80;;;23.30;92.40;;;;;;5011821;28;20474;-68
2021/07/28 08:05:26;;;;;;;7.33;6.00;;;23.20;92.80;;;;;;5011710;28;20490;-68
2021/07/28 08:07:53;;;;;;;6.70;6.00;;;23.20;93.00;;;;;;5011851;28;20526;-68
2021/07/28 08:10:20;;;;;;;8.07;5.23;;;23.20;93.10;;;;;;5011604;28;20443;-68
2021/07/28 08:12:49;;;;;;;7.47;5.93;;;23.10;93.00;;;;;;5011471;28;21000;-68
2021/07/28 08:15:16;;;;;;;9.17;6.37;;;23.00;93.50;;;;;;5011588;28;20523;-68
2021/07/28 08:17:43;;;;;;;8.70;6.10;;;22.80;93.40;;;;;;5011488;28;20489;-69
2021/07/28 08:20:12;;;;;;;6.90;5.73;;;22.70;93.20;;;;;;5011619;28;20906;-68
2021/07/28 08:22:39;;;;;;;5.77;5.17;;;22.60;93.30;;;;;;5011577;28;20470;-68
2021/07/28 08:25:07;;;;;;;6.30;5.70;;;22.60;93.60;;;;;;5011536;28;20447;-68
2021/07/28 08:27:34;;;;;;;8.10;6.43;;;22.50;93.80;;;;;;5011087;28;20529;-68
2021/07/28 08:30:03;;;;;;;6.87;5.40;;;22.40;94.10;;;;;;5011442;28;20574;-68
2021/07/28 08:32:30;;;;;;;8.00;5.97;;;22.30;94.30;;;;;;5011404;28;20526;-68
2021/07/28 08:34:57;;;;;;;7.57;6.77;;;22.20;94.40;;;;;;5011467;28;20529;-68
2021/07/28 08:37:24;;;;;;;7.30;6.23;;;22.10;94.80;;;;;;5011144;28;21050;-68
2021/07/28 08:39:51;;;;;;;9.00;6.83;;;22.00;95.00;;;;;;5011143;28;20522;-68
2021/07/28 08:42:19;;;;;;;7.10;6.37;;;22.00;95.30;;;;;;5011168;28;20526;-68
2021/07/28 08:44:48;;;;;;;8.40;6.93;;;21.80;95.30;;;;;;5011253;28;20887;-69
2021/07/28 08:47:19;;;;;;;9.00;6.07;;;21.70;95.70;;;;;;5011479;28;20446;-69
2021/07/28 08:49:46;;;;;;;7.50;5.77;;;21.60;96.00;;;;;;5011250;28;20438;-68
2021/07/28 08:52:14;;;;;;;7.77;4.87;;;21.40;96.10;;;;;;5011098;28;20446;-68
2021/07/28 08:54:41;;;;;;;7.87;5.40;;;21.30;96.20;;;;;;5011109;28;20435;-69
2021/07/28 08:57:11;;;;;;;8.77;4.90;;;21.20;96.60;;;;;;5010233;28;20521;-68
2021/07/28 08:59:40;;;;;;;7.10;4.53;;;21.00;96.40;;;;;;5011260;28;20794;-68
2021/07/28 09:02:09;;;;;;;8.77;5.03;;;20.90;96.50;;;;;;5011208;28;20431;-68
2021/07/28 09:04:41;;;;;;;7.73;5.73;;;20.80;96.50;;;;;;5011147;28;20486;-69
2021/07/28 09:07:15;;;;;;;5.20;4.30;;;20.70;96.70;;;;;;5011050;28;20434;-68
2021/07/28 09:09:52;;;;;;;5.57;3.93;;;20.60;96.90;;;;;;5011145;28;20443;-69
2021/07/28 09:12:20;;;;;;;7.07;4.17;;;20.50;97.00;;;;;;5010842;28;20495;-68
2021/07/28 09:14:55;;;;;;;5.50;4.17;;;20.50;96.60;;;;;;5010788;28;20488;-69
2021/07/28 09:17:26;;;;;;;7.57;4.30;;;20.40;96.70;;;;;;5010883;28;20539;-68
2021/07/28 09:19:56;;;;;;;7.87;4.10;;;20.40;97.00;;;;;;5010636;28;20900;-68
2021/07/28 09:22:23;;;;;;;7.23;4.03;;;20.30;97.40;;;;;;5010995;28;20466;-68
2021/07/28 09:25:15;;;;;;;5.80;3.83;;;20.40;97.50;;;;;;5010826;28;20523;-69
2021/07/28 09:27:46;;;;;;;5.30;4.20;;;20.40;97.40;;;;;;5010786;28;22066;-69
2021/07/28 09:30:17;;;;;;;5.83;4.10;;;20.40;97.50;;;;;;5010678;28;20525;-68
2021/07/28 09:33:01;;;;;;;5.30;4.03;;;20.50;97.50;;;;;;5010811;28;20450;-70
2021/07/28 09:36:08;;;;;;;6.03;4.40;;;20.50;97.30;;;;;;5010800;28;20518;-68
2021/07/28 09:38:42;;;;;;;4.93;3.67;;;20.50;97.30;;;;;;5010556;28;20435;-69
2021/07/28 09:41:30;;;;;;;5.87;4.13;;;20.60;97.40;;;;;;5010826;28;20500;-68
2021/07/28 09:43:58;;;;;;;6.47;4.77;;;20.60;97.40;;;;;;5013499;28;20864;-68
2021/07/28 09:46:28;;;;;;;6.30;4.30;;;20.60;97.70;;;;;;5010650;28;20463;-69
2021/07/28 09:48:56;;;;;;;6.03;4.30;;;20.70;97.80;;;;;;5010741;28;20798;-68
2021/07/28 09:51:25;;;;;;;6.23;4.30;;;20.70;98.00;;;;;;5010504;28;20529;-68
2021/07/28 09:53:58;;;;;;;5.90;4.30;;;20.70;97.90;;;;;;5010451;28;20458;-69
2021/07/28 09:56:35;;;;;;;6.70;3.93;;;20.80;97.90;;;;;;5010603;28;20482;-68
2021/07/28 09:59:04;;;;;;;7.00;4.83;;;20.80;96.80;;;;;;5010394;28;20474;-68
2021/07/28 10:01:33;;;;;;;6.03;3.77;;;20.80;97.50;;;;;;5010355;28;20538;-69
2021/07/28 10:04:02;;;;;;;6.33;4.23;;;20.70;97.40;;;;;;5010425;28;20475;-68
2021/07/28 10:06:37;;;;;;;6.60;3.77;;;20.70;97.40;;;;;;5010431;28;20453;-68
2021/07/28 10:09:07;;;;;;;5.80;4.27;;;20.70;96.40;;;;;;5012492;28;20529;-68
2021/07/28 10:11:34;;;;;;;5.40;4.07;;;20.60;96.90;;;;;;5013782;28;21031;-68
2021/07/28 10:14:02;;;;;;;5.97;4.37;;;20.60;97.20;;;;;;5013696;28;20509;-68
2021/07/28 10:16:32;;;;;;;5.23;4.03;;;20.70;97.10;;;;;;5013587;28;20561;-68
2021/07/28 10:19:02;;;;;;;4.87;4.30;;;20.70;96.60;;;;;;5013856;28;20792;-67
2021/07/28 10:21:31;;;;;;;5.87;3.90;;;20.70;96.80;;;;;;5013594;28;20435;-68
2021/07/28 10:23:58;;;;;;;5.87;4.07;;;20.90;97.10;;;;;;5013628;28;20525;-68
2021/07/28 10:26:27;;;;;;;4.70;3.47;;;20.90;97.10;;;;;;5013395;28;20499;-68
2021/07/28 10:28:54;;;;;;;6.23;3.77;;;20.90;96.80;;;;;;5013408;28;20503;-67
2021/07/28 10:31:24;;;;;;;4.90;3.63;;;20.90;96.00;;;;;;5013519;28;20446;-68
2021/07/28 10:33:53;;;;;;;6.50;4.17;;;20.80;96.00;;;;;;5013363;28;20762;-68
2021/07/28 10:36:21;;;;;;;5.87;4.50;;;20.70;96.60;;;;;;5012474;28;20859;-68
2021/07/28 10:38:53;;;;;;;5.97;4.40;;;20.80;97.20;;;;;;5012672;28;20530;-68
2021/07/28 10:41:49;;;;;;;5.50;3.93;;;20.90;96.60;;;;;;5012765;28;20526;-69
2021/07/28 10:44:18;;;;;;;4.60;3.60;;;21.10;96.80;;;;;;4998722;28;20789;-68
2021/07/28 10:47:21;;;;;;;4.63;3.97;;;21.20;96.70;;;;;;5008196;28;20518;-68
2021/07/28 10:49:49;;;;;;;6.20;3.70;;;21.30;95.70;;;;;;5013215;28;20488;-68
2021/07/28 10:52:47;;;;;;;5.30;3.57;;;21.50;95.00;;;;;;5012501;28;20475;-68
2021/07/28 10:55:25;;;;;;;6.63;4.53;;;21.60;94.70;;;;;;5050835;28;20468;-67
2021/07/28 11:01:07;;;;;;;5.07;4.03;;;22.00;94.60;;;;;;5069102;28;20419;-68
2021/07/28 11:03:38;;;;;;;3.77;3.27;;;22.20;93.90;;;;;;5068968;28;20447;-67
2021/07/28 11:06:25;;;;;;;4.03;3.63;;;22.20;94.70;;;;;;4999147;28;20431;-70
2021/07/28 11:08:54;;;;;;;4.30;3.53;;;22.30;94.90;;;;;;4991699;28;20851;-68
2021/07/28 11:11:30;;;;;;;5.77;4.00;;;22.30;94.20;;;;;;5023881;28;20865;-67
2021/07/28 11:14:04;;;;;;;4.43;3.00;;;22.20;93.60;;;;;;5086063;28;20439;-67
2021/07/28 11:16:34;;;;;;;5.30;3.67;;;22.00;92.20;;;;;;5016889;28;20477;-68
2021/07/28 11:19:02;;;;;;;5.43;3.93;;;21.80;92.70;;;;;;5007279;28;20439;-68
2021/07/28 11:21:33;;;;;;;8.20;6.20;;;21.80;93.30;;;;;;4994239;28;20454;-68
2021/07/28 11:24:02;;;;;;;6.50;4.40;;;21.80;93.70;;;;;;4991154;28;20789;-68
2021/07/28 11:26:32;;;;;;;5.73;3.77;;;21.70;93.80;;;;;;4992538;28;20436;-67
2021/07/28 11:29:03;;;;;;;7.07;3.87;;;21.70;93.70;;;;;;5005373;28;20579;-67
2021/07/28 11:31:34;;;;;;;5.93;4.10;;;21.70;93.60;;;;;;5007692;28;20435;-68
2021/07/28 11:34:17;;;;;;;5.73;4.13;;;21.60;92.30;;;;;;5009196;28;20446;-68
2021/07/28 11:36:55;;;;;;;4.10;3.57;;;21.40;92.40;;;;;;4998201;28;20471;-67
2021/07/28 11:39:25;;;;;;;4.70;3.77;;;21.40;92.70;;;;;;4991660;28;20443;-68
2021/07/28 11:42:04;;;;;;;9.00;3.20;;;21.40;93.70;;;;;;4992214;28;20439;-68
2021/07/28 11:44:44;;;;;;;5.10;3.47;;;21.50;94.70;;;;;;4993155;28;20458;-68
2021/07/28 11:47:15;;;;;;;4.93;3.37;;;21.50;95.00;;;;;;5038666;28;20783;-67
2021/07/28 11:49:42;;;;;;;4.40;3.03;;;21.70;95.50;;;;;;4993588;28;20951;-68
2021/07/28 11:52:15;;;;;;;5.10;3.80;;;21.70;93.70;;;;;;5008765;28;20529;-68
2021/07/28 11:54:43;;;;;;;4.93;3.20;;;21.80;94.20;;;;;;5011692;28;20460;-68
2021/07/28 11:57:10;;;;;;;4.90;3.43;;;21.90;94.40;;;;;;5009079;28;20486;-67
2021/07/28 11:59:37;;;;;;;7.50;3.57;;;22.10;94.30;;;;;;5009119;28;20447;-68
2021/07/28 12:02:05;;;;;;;6.50;4.83;;;22.30;94.00;;;;;;5011962;28;20457;-67
2021/07/28 12:04:35;;;;;;;5.53;3.90;;;22.60;94.50;;;;;;5011252;28;20442;-69
2021/07/28 12:07:13;;;;;;;4.27;3.73;;;22.80;93.40;;;;;;5012080;28;20819;-68
2021/07/28 12:09:40;;;;;;;3.40;3.10;;;22.90;93.70;;;;;;5012002;28;20530;-67
2021/07/28 12:12:16;;;;;;;4.70;3.70;;;22.90;92.70;;;;;;5012123;28;20521;-67
2021/07/28 12:14:45;;;;;;;4.30;3.07;;;22.80;91.90;;;;;;5011709;28;20525;-69
2021/07/28 12:17:23;;;;;;;4.67;3.50;;;22.60;92.40;;;;;;5011939;28;20529;-68
2021/07/28 12:19:57;;;;;;;3.83;2.70;;;22.50;92.10;;;;;;5011680;28;20928;-68
2021/07/28 12:22:32;;;;;;;4.43;3.10;;;22.50;92.60;;;;;;5011748;28;20530;-68
2021/07/28 12:25:23;;;;;;;6.03;3.60;;;22.60;92.60;;;;;;5011649;28;20791;-67
2021/07/28 12:28:07;;;;;;;3.50;2.47;;;22.70;93.00;;;;;;5011546;28;20510;-68
2021/07/28 12:30:35;;;;;;;4.80;3.27;;;22.80;90.50;;;;;;5011569;28;20462;-67
2021/07/28 12:33:07;;;;;;;6.50;3.63;;;22.80;91.20;;;;;;5011535;28;20488;-67
2021/07/28 12:35:50;;;;;;;5.37;3.60;;;22.70;91.90;;;;;;5011604;28;20443;-68
2021/07/28 12:38:20;;;;;;;4.70;3.63;;;22.70;91.90;;;;;;5011528;28;20559;-69
2021/07/28 12:40:51;;;;;;;4.63;3.33;;;22.70;91.90;;;;;;5011836;28;20446;-69
2021/07/28 12:43:18;;;;;;;4.10;3.10;;;22.60;90.50;;;;;;5011624;28;20443;-68
2021/07/28 12:45:45;;;;;;;4.90;3.50;;;22.40;90.70;;;;;;5011529;28;20503;-68
2021/07/28 12:48:12;;;;;;;4.57;2.90;;;22.30;90.50;;;;;;5011204;28;20449;-68
2021/07/28 12:50:42;;;;;;;4.27;3.17;;;22.10;91.10;;;;;;5011685;28;20443;-68
2021/07/28 12:53:09;;;;;;;3.73;3.00;;;22.10;91.90;;;;;;5011425;28;20461;-68
2021/07/28 12:55:40;;;;;;;6.00;3.27;;;22.10;92.70;;;;;;5011352;28;20534;-68
2021/07/28 12:58:07;;;;;;;4.40;2.83;;;22.20;92.70;;;;;;5011083;28;20483;-67
2021/07/28 13:00:34;;;;;;;3.30;2.70;;;22.30;92.80;;;;;;5011106;28;20529;-68
2021/07/28 13:03:04;;;;;;;3.57;2.50;;;22.40;92.70;;;;;;5010993;28;20808;-68
2021/07/28 13:05:31;;;;;;;3.67;2.60;;;22.50;92.00;;;;;;5011082;28;20545;-68